Time;durP1;ratioP1;P1;durP2;ratioP2;P2;SDS_P1;SDS_P2;PMS_P1;PMS_P2;Temp;Humidity;BMP_temperature;BMP_pressure;BME280_temperature;BME280_humidity;BME280_pressure;Samples;Min_cycle;Max_cycle;Signal;HPM_P1;HPM_P2
2021/01/22 00:02:24;;;;;;;3.25;2.88;;;18.70;45.30;;;;;;5085855;28;20048;-40
2021/01/22 00:04:51;;;;;;;3.60;3.10;;;18.70;45.30;;;;;;5084088;28;20082;-40
2021/01/22 00:07:18;;;;;;;3.33;2.83;;;18.70;45.30;;;;;;5090824;28;20071;-40
2021/01/22 00:09:44;;;;;;;3.15;2.85;;;18.70;45.30;;;;;;5090532;28;20491;-41
2021/01/22 00:12:11;;;;;;;3.08;2.78;;;18.70;45.30;;;;;;5084096;28;20469;-41
2021/01/22 00:14:37;;;;;;;3.28;2.63;;;18.70;45.30;;;;;;5090845;28;20117;-40
2021/01/22 00:17:04;;;;;;;3.40;3.10;;;18.70;45.30;;;;;;5088096;28;20059;-40
2021/01/22 00:19:31;;;;;;;3.95;2.80;;;18.70;45.30;;;;;;5089493;28;20048;-42
2021/01/22 00:21:58;;;;;;;3.17;2.60;;;18.70;45.30;;;;;;5090547;28;20446;-40
2021/01/22 00:24:26;;;;;;;4.40;2.83;;;18.70;45.30;;;;;;5081408;28;20045;-41
2021/01/22 00:26:53;;;;;;;3.10;2.75;;;18.70;45.20;;;;;;5085559;28;20097;-41
2021/01/22 00:29:20;;;;;;;3.25;2.50;;;18.70;45.30;;;;;;5085029;28;20483;-43
2021/01/22 00:31:46;;;;;;;3.22;2.80;;;18.70;45.20;;;;;;5083148;28;20052;-41
2021/01/22 00:34:13;;;;;;;3.25;2.70;;;18.70;45.20;;;;;;5085627;28;20098;-40
2021/01/22 00:36:40;;;;;;;3.55;2.53;;;18.70;45.20;;;;;;5093275;28;20044;-41
2021/01/22 00:39:06;;;;;;;3.13;2.63;;;18.70;45.30;;;;;;5089819;28;20103;-41
2021/01/22 00:41:33;;;;;;;3.67;3.05;;;18.70;45.20;;;;;;5079938;28;20105;-40
2021/01/22 00:44:01;;;;;;;3.20;2.90;;;18.70;45.30;;;;;;5081953;28;20495;-40
2021/01/22 00:46:27;;;;;;;3.75;2.72;;;18.70;45.20;;;;;;5085434;28;20047;-41
2021/01/22 00:48:54;;;;;;;4.07;2.85;;;18.70;45.20;;;;;;5079803;28;20044;-41
2021/01/22 00:51:21;;;;;;;3.40;3.03;;;18.70;45.20;;;;;;5084125;28;20075;-42
2021/01/22 00:53:47;;;;;;;3.50;2.83;;;18.70;45.20;;;;;;5089134;28;20051;-41
2021/01/22 00:56:14;;;;;;;3.25;2.75;;;18.70;45.20;;;;;;5083958;28;20037;-44
2021/01/22 00:58:40;;;;;;;3.55;2.78;;;18.70;45.20;;;;;;5087376;28;20059;-41
2021/01/22 01:01:07;;;;;;;3.50;2.85;;;18.70;45.20;;;;;;5083468;28;20093;-41
2021/01/22 01:03:34;;;;;;;4.25;3.17;;;18.70;45.20;;;;;;5087569;28;20048;-41
2021/01/22 01:06:01;;;;;;;3.42;2.85;;;18.70;45.30;;;;;;5088974;28;20040;-42
2021/01/22 01:08:28;;;;;;;3.47;3.00;;;18.70;45.30;;;;;;5105308;28;20044;-40
2021/01/22 01:10:55;;;;;;;3.80;3.00;;;18.70;45.20;;;;;;5088590;28;20048;-40
2021/01/22 01:13:21;;;;;;;2.72;2.50;;;18.70;45.30;;;;;;5087519;28;20090;-40
2021/01/22 01:15:48;;;;;;;3.20;2.90;;;18.70;45.20;;;;;;5080640;28;20048;-40
2021/01/22 01:18:14;;;;;;;3.97;3.15;;;18.70;45.30;;;;;;5089062;28;20044;-39
2021/01/22 01:20:47;;;;;;;3.30;2.93;;;18.70;45.20;;;;;;5085846;28;20120;-39
2021/01/22 01:23:14;;;;;;;3.60;3.13;;;18.70;45.20;;;;;;5082157;28;20044;-40
2021/01/22 01:25:42;;;;;;;3.25;2.70;;;18.70;45.20;;;;;;5089071;28;20098;-39
2021/01/22 01:28:08;;;;;;;4.20;3.17;;;18.70;45.20;;;;;;5092949;28;20081;-40
2021/01/22 01:30:35;;;;;;;3.03;2.72;;;18.70;45.30;;;;;;5089124;28;20051;-40
2021/01/22 01:33:03;;;;;;;3.70;2.90;;;18.70;45.20;;;;;;5082979;28;20044;-39
2021/01/22 01:35:30;;;;;;;3.55;3.05;;;18.70;45.20;;;;;;5085028;28;20495;-39
2021/01/22 01:37:57;;;;;;;3.58;2.90;;;18.70;45.20;;;;;;5082836;28;20043;-40
2021/01/22 01:40:24;;;;;;;3.72;2.97;;;18.70;45.20;;;;;;5086762;28;20055;-39
2021/01/22 01:42:50;;;;;;;3.65;2.90;;;18.70;45.30;;;;;;5081790;28;20044;-39
2021/01/22 01:45:17;;;;;;;3.40;2.72;;;18.70;45.20;;;;;;5088047;28;20052;-40
2021/01/22 01:47:44;;;;;;;3.33;2.78;;;18.70;45.20;;;;;;5085211;28;20075;-40
2021/01/22 01:50:12;;;;;;;4.10;3.28;;;18.60;45.10;;;;;;5088173;28;20090;-39
2021/01/22 01:52:39;;;;;;;4.03;2.60;;;18.70;45.20;;;;;;5078944;28;20047;-39
2021/01/22 01:55:07;;;;;;;3.05;2.75;;;18.60;45.10;;;;;;5081497;28;20049;-41
2021/01/22 01:57:35;;;;;;;3.10;2.72;;;18.60;45.10;;;;;;5085146;28;20089;-42
2021/01/22 02:00:04;;;;;;;3.65;3.20;;;18.60;45.10;;;;;;5079019;28;20067;-39
2021/01/22 02:02:31;;;;;;;3.75;2.78;;;18.60;45.10;;;;;;5084143;28;20393;-40
2021/01/22 02:04:58;;;;;;;5.70;3.20;;;18.60;45.10;;;;;;5088158;28;20044;-39
2021/01/22 02:07:25;;;;;;;3.65;2.80;;;18.60;45.10;;;;;;5084135;28;20083;-41
2021/01/22 02:09:52;;;;;;;3.10;2.80;;;18.60;45.10;;;;;;5091463;28;20070;-39
2021/01/22 02:12:19;;;;;;;4.53;2.65;;;18.60;45.10;;;;;;5084113;28;20044;-39
2021/01/22 02:14:47;;;;;;;3.72;3.03;;;18.60;45.10;;;;;;5086532;28;20554;-39
2021/01/22 02:17:14;;;;;;;3.72;3.00;;;18.60;45.10;;;;;;5081277;28;20105;-40
2021/01/22 02:20:11;;;;;;;4.10;3.28;;;18.60;45.10;;;;;;5088849;28;20043;-40
2021/01/22 02:22:38;;;;;;;3.25;2.60;;;18.60;45.10;;;;;;5076135;28;20052;-40
2021/01/22 02:25:10;;;;;;;3.20;2.55;;;18.60;45.10;;;;;;5077817;28;20049;-40
2021/01/22 02:27:38;;;;;;;3.72;2.72;;;18.60;45.10;;;;;;5078773;28;20044;-40
2021/01/22 02:30:06;;;;;;;3.17;2.78;;;18.60;45.10;;;;;;5083282;28;20093;-40
2021/01/22 02:32:34;;;;;;;3.65;2.97;;;18.60;45.10;;;;;;5081978;28;20553;-41
2021/01/22 02:35:08;;;;;;;3.55;2.97;;;18.60;45.10;;;;;;5085084;28;20449;-40
2021/01/22 02:37:40;;;;;;;3.35;3.05;;;18.60;45.10;;;;;;5077625;28;20040;-39
2021/01/22 02:40:09;;;;;;;3.47;2.80;;;18.60;45.10;;;;;;5082599;28;20051;-41
2021/01/22 02:42:39;;;;;;;3.75;2.83;;;18.60;45.10;;;;;;5080040;28;20052;-41
2021/01/22 02:45:10;;;;;;;3.00;2.30;;;18.60;45.10;;;;;;5082912;28;20499;-41
2021/01/22 02:47:44;;;;;;;4.00;3.00;;;18.60;45.10;;;;;;5087715;28;20060;-42
2021/01/22 02:50:28;;;;;;;3.75;2.95;;;18.60;45.10;;;;;;5089322;28;20044;-40
2021/01/22 02:53:01;;;;;;;3.00;2.70;;;18.60;45.20;;;;;;5082692;28;20400;-40
2021/01/22 02:55:30;;;;;;;3.53;2.83;;;18.60;45.20;;;;;;5081401;28;20411;-41
2021/01/22 02:58:17;;;;;;;3.30;3.00;;;18.60;45.30;;;;;;5089604;28;20051;-40
2021/01/22 03:00:49;;;;;;;3.38;3.08;;;18.60;45.10;;;;;;5078584;28;20056;-40
2021/01/22 03:03:38;;;;;;;3.65;2.88;;;18.60;45.10;;;;;;5082127;28;20097;-40
2021/01/22 03:06:08;;;;;;;3.63;3.00;;;18.60;45.10;;;;;;5081470;28;20543;-42
2021/01/22 03:08:36;;;;;;;4.50;2.97;;;18.60;45.80;;;;;;5084519;28;20052;-42
2021/01/22 03:11:06;;;;;;;4.03;3.20;;;18.60;45.20;;;;;;5078043;28;20094;-40
2021/01/22 03:13:33;;;;;;;4.10;3.10;;;18.60;45.10;;;;;;5076154;28;20045;-40
2021/01/22 03:16:01;;;;;;;3.22;2.78;;;18.60;45.10;;;;;;5089999;28;20431;-41
2021/01/22 03:18:28;;;;;;;3.55;2.65;;;18.60;45.20;;;;;;5079417;28;20048;-40
2021/01/22 03:20:55;;;;;;;4.15;3.15;;;18.60;45.10;;;;;;5078818;28;20584;-40
2021/01/22 03:23:21;;;;;;;3.47;2.92;;;18.60;45.70;;;;;;5079347;28;20048;-39
2021/01/22 03:25:48;;;;;;;3.58;3.10;;;18.60;45.10;;;;;;5079138;28;20101;-39
2021/01/22 03:28:15;;;;;;;3.92;3.00;;;18.60;45.10;;;;;;5085393;28;20040;-40
2021/01/22 03:30:42;;;;;;;2.97;2.60;;;18.60;45.10;;;;;;5085496;28;20036;-40
2021/01/22 03:33:08;;;;;;;3.53;2.65;;;18.60;45.10;;;;;;5088632;28;20113;-42
2021/01/22 03:35:35;;;;;;;4.18;3.00;;;18.60;45.10;;;;;;5083049;28;20456;-41
2021/01/22 03:38:02;;;;;;;3.20;2.88;;;18.60;45.10;;;;;;5083170;28;20040;-40
2021/01/22 03:40:28;;;;;;;3.38;2.80;;;18.60;45.10;;;;;;5080173;28;20496;-41
2021/01/22 03:42:55;;;;;;;3.65;2.80;;;18.60;45.10;;;;;;5084973;28;20044;-40
2021/01/22 03:45:22;;;;;;;3.67;2.92;;;18.60;45.10;;;;;;5079479;28;20102;-42
2021/01/22 03:47:48;;;;;;;4.15;3.30;;;18.60;45.10;;;;;;5082305;28;20048;-42
2021/01/22 03:50:15;;;;;;;3.15;2.85;;;18.60;45.10;;;;;;5081200;28;20545;-43
2021/01/22 03:52:42;;;;;;;3.85;3.00;;;18.60;45.10;;;;;;5086229;28;20051;-40
2021/01/22 03:55:08;;;;;;;3.50;2.90;;;18.60;45.10;;;;;;5081502;28;20041;-40
2021/01/22 03:57:35;;;;;;;4.38;2.90;;;18.60;45.20;;;;;;5087135;28;20075;-41
2021/01/22 04:00:05;;;;;;;3.33;2.70;;;18.60;45.10;;;;;;5083909;28;20055;-40
2021/01/22 04:02:32;;;;;;;3.38;2.80;;;18.60;45.10;;;;;;5086244;28;20058;-39
2021/01/22 04:04:59;;;;;;;3.22;2.80;;;18.60;45.30;;;;;;5080182;28;20392;-40
2021/01/22 04:07:25;;;;;;;3.53;2.78;;;18.60;45.10;;;;;;5081392;28;20052;-40
2021/01/22 04:09:52;;;;;;;4.22;3.25;;;18.60;45.10;;;;;;5078098;28;20114;-42
2021/01/22 04:12:19;;;;;;;3.60;2.80;;;18.60;45.10;;;;;;5080343;28;20045;-39
2021/01/22 04:14:45;;;;;;;3.65;2.92;;;18.60;45.10;;;;;;5082738;28;20070;-41
2021/01/22 04:17:12;;;;;;;3.83;2.92;;;18.50;45.00;;;;;;5083213;28;20113;-42
2021/01/22 04:19:39;;;;;;;4.07;2.92;;;18.60;45.10;;;;;;5076260;28;20044;-40
2021/01/22 04:22:05;;;;;;;3.45;3.13;;;18.60;45.10;;;;;;5083496;28;20496;-41
2021/01/22 04:24:34;;;;;;;3.97;2.90;;;18.50;45.10;;;;;;5081509;28;20055;-42
2021/01/22 04:27:01;;;;;;;3.42;2.88;;;18.60;45.10;;;;;;5088874;28;20060;-40
2021/01/22 04:29:28;;;;;;;3.15;2.78;;;18.50;45.00;;;;;;5075686;28;20052;-41
2021/01/22 04:31:54;;;;;;;3.10;2.60;;;18.50;45.10;;;;;;5081597;28;20447;-41
2021/01/22 04:34:21;;;;;;;2.83;2.53;;;18.50;45.10;;;;;;5082915;28;20495;-39
2021/01/22 04:36:48;;;;;;;3.95;3.17;;;18.50;45.10;;;;;;5083906;28;20438;-40
2021/01/22 04:39:15;;;;;;;3.78;3.00;;;18.50;45.00;;;;;;5079783;28;20040;-40
2021/01/22 04:41:42;;;;;;;3.45;2.85;;;18.50;45.10;;;;;;5084168;28;20044;-40
2021/01/22 04:44:09;;;;;;;3.83;2.92;;;18.60;45.10;;;;;;5081270;28;20423;-40
2021/01/22 04:46:37;;;;;;;3.55;2.92;;;18.50;45.10;;;;;;5090266;28;20052;-40
2021/01/22 04:49:05;;;;;;;3.25;2.63;;;18.50;45.10;;;;;;5083512;28;20510;-43
2021/01/22 04:51:35;;;;;;;3.30;2.90;;;18.50;45.10;;;;;;5077423;28;20487;-41
2021/01/22 04:54:07;;;;;;;3.88;3.05;;;18.50;45.10;;;;;;5086929;28;20487;-42
2021/01/22 04:56:38;;;;;;;3.92;2.88;;;18.50;45.00;;;;;;5083514;28;20125;-40
2021/01/22 04:59:15;;;;;;;4.15;2.95;;;18.50;45.00;;;;;;5084009;28;20568;-42
2021/01/22 05:01:44;;;;;;;3.80;2.95;;;18.50;45.00;;;;;;5081314;28;20523;-41
2021/01/22 05:04:11;;;;;;;3.97;3.05;;;18.50;45.10;;;;;;5085930;28;20053;-40
2021/01/22 05:06:39;;;;;;;3.58;2.92;;;18.50;45.10;;;;;;5083833;28;20047;-43
2021/01/22 05:09:05;;;;;;;3.15;2.45;;;18.50;45.10;;;;;;5085262;28;20045;-42
2021/01/22 05:11:32;;;;;;;3.67;2.88;;;18.50;45.10;;;;;;5089179;28;20067;-41
2021/01/22 05:14:00;;;;;;;4.25;3.33;;;18.60;45.10;;;;;;5081830;28;20045;-41
2021/01/22 05:16:26;;;;;;;3.15;2.50;;;18.50;45.10;;;;;;5082577;28;20119;-41
2021/01/22 05:18:53;;;;;;;3.63;2.95;;;18.50;45.70;;;;;;5086174;28;20062;-42
2021/01/22 05:21:20;;;;;;;4.00;3.08;;;18.50;45.10;;;;;;5091022;28;20442;-44
2021/01/22 05:23:47;;;;;;;3.30;2.85;;;18.50;45.00;;;;;;5082904;28;20098;-41
2021/01/22 05:26:16;;;;;;;2.85;2.55;;;18.50;45.00;;;;;;5086709;28;20049;-41
2021/01/22 05:28:48;;;;;;;3.10;2.80;;;18.50;45.00;;;;;;5083169;28;20129;-41
2021/01/22 05:31:17;;;;;;;3.20;2.55;;;18.50;45.00;;;;;;5082938;28;20048;-42
2021/01/22 05:34:00;;;;;;;3.72;3.03;;;18.50;45.00;;;;;;5086801;28;20090;-43
2021/01/22 05:36:29;;;;;;;3.38;2.90;;;18.50;45.00;;;;;;5083971;28;20488;-41
2021/01/22 05:39:02;;;;;;;3.75;3.05;;;18.50;45.00;;;;;;5088686;28;20047;-40
2021/01/22 05:41:29;;;;;;;3.70;3.05;;;18.50;45.00;;;;;;5083700;28;20044;-43
2021/01/22 05:43:56;;;;;;;3.88;3.03;;;18.50;45.00;;;;;;5085230;28;20109;-40
2021/01/22 05:46:25;;;;;;;3.65;2.70;;;18.50;45.00;;;;;;5074792;28;20048;-39
2021/01/22 05:49:07;;;;;;;4.15;3.13;;;18.60;45.10;;;;;;5080161;28;20044;-40
2021/01/22 05:51:34;;;;;;;3.58;3.13;;;18.50;45.00;;;;;;5080692;28;20048;-40
2021/01/22 05:54:01;;;;;;;3.85;2.83;;;18.50;45.00;;;;;;5077862;28;20044;-39
2021/01/22 05:56:27;;;;;;;3.42;3.13;;;18.60;45.10;;;;;;5083507;28;20040;-40
2021/01/22 05:58:54;;;;;;;3.47;2.80;;;18.60;45.10;;;;;;5087653;28;20411;-40
2021/01/22 06:01:22;;;;;;;3.75;2.95;;;18.60;45.00;;;;;;5084532;28;20040;-39
2021/01/22 06:04:05;;;;;;;4.13;3.35;;;18.60;45.10;;;;;;5084242;28;20044;-39
2021/01/22 06:06:32;;;;;;;3.70;3.13;;;18.60;45.10;;;;;;5083971;28;20094;-40
2021/01/22 06:09:00;;;;;;;3.03;2.53;;;18.60;45.00;;;;;;5086502;28;20469;-40
2021/01/22 06:11:28;;;;;;;3.28;2.85;;;18.50;44.90;;;;;;5084154;28;20040;-43
2021/01/22 06:13:58;;;;;;;3.58;3.05;;;18.60;45.00;;;;;;5083854;28;20056;-41
2021/01/22 06:16:27;;;;;;;3.72;3.13;;;18.60;45.10;;;;;;5083699;28;20586;-41
2021/01/22 06:19:02;;;;;;;4.25;2.95;;;18.60;45.00;;;;;;5082782;28;20048;-41
2021/01/22 06:21:50;;;;;;;3.50;2.88;;;18.60;45.00;;;;;;5081160;28;20461;-42
2021/01/22 06:24:17;;;;;;;2.83;2.47;;;18.50;44.90;;;;;;5089420;28;20048;-40
2021/01/22 06:26:44;;;;;;;3.60;2.85;;;18.50;45.00;;;;;;5083211;28;20080;-40
2021/01/22 06:29:11;;;;;;;3.33;2.88;;;18.60;45.00;;;;;;5082541;28;20056;-40
2021/01/22 06:31:38;;;;;;;3.42;2.85;;;18.60;45.10;;;;;;5077171;28;20074;-40
2021/01/22 06:34:06;;;;;;;2.72;2.50;;;18.60;45.60;;;;;;5074189;28;20492;-40
2021/01/22 06:36:33;;;;;;;3.65;3.03;;;18.60;45.00;;;;;;5078147;28;20048;-42
2021/01/22 06:39:02;;;;;;;4.63;3.00;;;18.60;45.00;;;;;;5076980;28;20048;-39
2021/01/22 06:41:30;;;;;;;3.97;3.20;;;18.60;45.10;;;;;;5081493;28;20503;-41
2021/01/22 06:43:59;;;;;;;3.47;3.00;;;18.60;45.10;;;;;;5083741;28;20040;-43
2021/01/22 06:46:31;;;;;;;4.35;3.15;;;18.60;45.00;;;;;;5074907;28;20036;-40
2021/01/22 06:49:00;;;;;;;3.63;3.00;;;18.60;45.10;;;;;;5081836;28;20080;-40
2021/01/22 06:51:36;;;;;;;2.97;2.67;;;18.60;45.10;;;;;;5089571;28;20044;-42
2021/01/22 06:54:10;;;;;;;2.67;2.40;;;18.60;45.10;;;;;;5091043;28;20036;-40
2021/01/22 06:56:55;;;;;;;3.22;2.80;;;18.60;45.10;;;;;;5087570;28;20484;-41
2021/01/22 06:59:24;;;;;;;3.50;3.10;;;18.60;45.10;;;;;;5089352;28;20056;-41
2021/01/22 07:01:52;;;;;;;3.63;3.00;;;18.60;45.10;;;;;;5077399;28;20479;-42
2021/01/22 07:04:35;;;;;;;3.70;2.97;;;18.60;45.00;;;;;;5085174;28;20044;-40
2021/01/22 07:07:05;;;;;;;3.42;3.13;;;18.60;45.10;;;;;;5079785;28;20048;-39
2021/01/22 07:09:49;;;;;;;3.22;2.70;;;18.60;45.10;;;;;;5083931;28;20044;-39
2021/01/22 07:12:17;;;;;;;3.47;2.70;;;18.60;45.10;;;;;;5086472;28;20048;-41
2021/01/22 07:14:45;;;;;;;4.85;2.92;;;18.60;45.00;;;;;;5082546;28;20393;-40
2021/01/22 07:17:19;;;;;;;3.05;2.75;;;18.60;45.00;;;;;;5078924;28;20040;-41
2021/01/22 07:19:54;;;;;;;3.83;3.17;;;18.60;45.00;;;;;;5078876;28;20123;-40
2021/01/22 07:22:21;;;;;;;4.20;3.35;;;18.60;45.00;;;;;;5084290;28;20087;-39
2021/01/22 07:24:54;;;;;;;3.35;2.97;;;18.60;45.00;;;;;;5086848;28;20132;-40
2021/01/22 07:27:21;;;;;;;3.78;3.10;;;18.60;45.00;;;;;;5079443;28;20056;-40
2021/01/22 07:30:15;;;;;;;2.92;2.47;;;18.60;45.00;;;;;;5083184;28;20436;-41
2021/01/22 07:32:44;;;;;;;4.00;2.80;;;18.60;45.00;;;;;;5077113;28;20051;-40
2021/01/22 07:35:19;;;;;;;3.58;2.92;;;18.60;45.00;;;;;;5085347;28;20441;-40
2021/01/22 07:37:48;;;;;;;2.88;2.60;;;18.60;45.00;;;;;;5083924;28;20498;-39
2021/01/22 07:40:15;;;;;;;3.30;2.90;;;18.60;45.10;;;;;;5085811;28;20044;-40
2021/01/22 07:42:44;;;;;;;4.15;2.90;;;18.60;45.00;;;;;;5074948;28;20052;-41
2021/01/22 07:45:14;;;;;;;3.05;2.67;;;18.60;45.00;;;;;;5072567;28;20439;-40
2021/01/22 07:47:46;;;;;;;2.92;2.63;;;18.60;45.00;;;;;;5073633;28;20044;-39
2021/01/22 07:50:19;;;;;;;3.47;2.97;;;18.60;45.00;;;;;;5078491;28;20454;-39
2021/01/22 07:52:48;;;;;;;3.35;2.75;;;18.60;45.00;;;;;;5080222;28;20052;-39
2021/01/22 07:55:23;;;;;;;3.28;2.85;;;18.60;45.00;;;;;;5082596;28;20048;-42
2021/01/22 07:58:10;;;;;;;3.25;2.83;;;18.60;45.00;;;;;;5079933;28;20040;-38
2021/01/22 08:00:40;;;;;;;3.53;2.85;;;18.60;45.00;;;;;;5086254;28;20044;-39
2021/01/22 08:03:09;;;;;;;4.22;3.13;;;18.60;45.00;;;;;;5080330;28;20052;-41
2021/01/22 08:05:37;;;;;;;3.40;2.75;;;18.60;45.00;;;;;;5084995;28;20058;-39
2021/01/22 08:08:21;;;;;;;3.38;2.50;;;18.60;45.00;;;;;;5086468;28;20067;-40
2021/01/22 08:10:47;;;;;;;3.60;3.08;;;18.60;45.00;;;;;;5080665;28;20056;-40
2021/01/22 08:13:15;;;;;;;3.00;2.60;;;18.60;45.00;;;;;;5083400;28;20101;-40
2021/01/22 08:15:44;;;;;;;3.78;2.97;;;18.60;45.00;;;;;;5080456;28;20098;-40
2021/01/22 08:18:15;;;;;;;3.55;2.90;;;18.60;45.00;;;;;;5087214;28;20056;-39
2021/01/22 08:20:51;;;;;;;3.22;2.80;;;18.60;45.00;;;;;;5080732;28;20123;-40
2021/01/22 08:23:21;;;;;;;2.92;2.60;;;18.60;45.00;;;;;;5087886;28;20056;-39
2021/01/22 08:25:47;;;;;;;3.38;2.97;;;18.60;45.00;;;;;;5085309;28;20056;-39
2021/01/22 08:28:15;;;;;;;3.00;2.60;;;18.60;45.00;;;;;;5085925;28;20052;-39
2021/01/22 08:30:42;;;;;;;3.58;3.05;;;18.60;45.00;;;;;;5091231;28;20048;-38
2021/01/22 08:33:09;;;;;;;3.55;2.83;;;18.60;44.90;;;;;;5087306;28;20537;-39
2021/01/22 08:35:36;;;;;;;3.22;2.83;;;18.60;44.90;;;;;;5089625;28;20045;-39
2021/01/22 08:38:04;;;;;;;3.50;2.72;;;18.60;45.00;;;;;;5080894;28;20407;-39
2021/01/22 08:40:43;;;;;;;3.20;2.90;;;18.60;44.90;;;;;;5085570;28;20129;-39
2021/01/22 08:43:12;;;;;;;3.90;2.95;;;18.60;44.90;;;;;;5081088;28;20087;-40
2021/01/22 08:45:41;;;;;;;3.53;2.97;;;18.60;44.90;;;;;;5084805;28;20204;-39
2021/01/22 08:48:09;;;;;;;3.38;2.90;;;18.70;45.00;;;;;;5086062;28;20051;-39
2021/01/22 08:50:38;;;;;;;4.35;3.25;;;18.70;45.00;;;;;;5087655;28;20458;-39
2021/01/22 08:53:06;;;;;;;3.22;2.72;;;18.60;44.90;;;;;;5090553;28;20055;-39
2021/01/22 08:55:33;;;;;;;3.40;2.90;;;18.60;44.90;;;;;;5088377;28;20044;-39
2021/01/22 08:58:02;;;;;;;3.65;3.00;;;18.70;45.00;;;;;;5092680;28;20047;-40
2021/01/22 09:00:29;;;;;;;3.13;2.53;;;18.60;44.90;;;;;;5086532;28;20048;-39
2021/01/22 09:02:57;;;;;;;4.10;2.85;;;18.70;45.00;;;;;;5090268;28;20067;-39
2021/01/22 09:05:24;;;;;;;3.47;3.08;;;18.60;44.90;;;;;;5087719;28;20410;-39
2021/01/22 09:08:14;;;;;;;3.00;2.40;;;18.70;44.90;;;;;;5082950;28;20465;-40
2021/01/22 09:10:42;;;;;;;3.20;2.88;;;18.70;44.90;;;;;;5076740;28;20093;-42
2021/01/22 09:13:25;;;;;;;3.50;2.90;;;18.70;44.90;;;;;;5081533;28;20079;-40
2021/01/22 09:16:07;;;;;;;3.33;2.90;;;18.70;45.00;;;;;;5079959;28;20048;-40
2021/01/22 09:18:33;;;;;;;3.72;3.00;;;18.70;44.90;;;;;;5088037;28;20044;-40
2021/01/22 09:21:06;;;;;;;3.45;2.72;;;18.70;45.00;;;;;;5076641;28;20040;-39
2021/01/22 09:23:35;;;;;;;3.08;2.53;;;18.70;44.90;;;;;;5087242;28;20044;-41
2021/01/22 09:26:03;;;;;;;3.67;2.92;;;18.70;44.90;;;;;;5089450;28;20044;-40
2021/01/22 09:28:29;;;;;;;3.72;2.80;;;18.70;44.90;;;;;;5082789;28;20075;-40
2021/01/22 09:30:56;;;;;;;3.45;2.90;;;18.70;44.90;;;;;;5087223;28;20043;-39
2021/01/22 09:33:23;;;;;;;4.45;3.20;;;18.70;45.20;;;;;;5084739;28;20045;-43
2021/01/22 09:35:49;;;;;;;3.55;3.00;;;18.70;44.90;;;;;;5085526;28;20041;-39
2021/01/22 09:38:16;;;;;;;4.38;3.30;;;18.70;44.90;;;;;;5081765;28;20492;-40
2021/01/22 09:40:43;;;;;;;3.90;3.20;;;18.80;44.90;;;;;;5086995;28;20050;-40
2021/01/22 09:43:09;;;;;;;3.15;2.55;;;18.70;44.80;;;;;;5084872;28;20044;-41
2021/01/22 09:45:36;;;;;;;3.38;3.03;;;18.70;44.80;;;;;;5077547;28;20056;-40
2021/01/22 09:48:03;;;;;;;3.17;2.85;;;18.80;44.90;;;;;;5088379;28;20077;-39
2021/01/22 09:50:30;;;;;;;4.10;3.03;;;18.70;44.80;;;;;;5087819;28;20392;-40
2021/01/22 09:52:56;;;;;;;3.28;2.50;;;18.70;44.80;;;;;;5081501;28;20048;-40
2021/01/22 09:55:23;;;;;;;3.35;3.05;;;18.70;44.80;;;;;;5089514;28;20051;-40
2021/01/22 09:57:51;;;;;;;3.70;2.95;;;18.70;44.80;;;;;;5083298;28;20048;-39
2021/01/22 10:00:17;;;;;;;2.97;2.65;;;18.80;44.90;;;;;;5084294;28;20048;-45
2021/01/22 10:02:44;;;;;;;3.63;3.30;;;18.80;44.90;;;;;;5085716;28;20098;-46
2021/01/22 10:05:12;;;;;;;4.20;3.22;;;18.80;45.00;;;;;;5083647;28;20072;-44
2021/01/22 10:07:39;;;;;;;3.45;3.10;;;18.80;44.90;;;;;;5083973;28;20044;-45
2021/01/22 10:10:06;;;;;;;3.08;2.65;;;18.70;44.80;;;;;;5083024;28;20052;-46
2021/01/22 10:12:33;;;;;;;4.00;3.20;;;18.80;44.90;;;;;;5089751;28;20396;-44
2021/01/22 10:15:00;;;;;;;3.47;2.90;;;18.80;44.90;;;;;;5084591;28;20139;-43
2021/01/22 10:17:28;;;;;;;3.20;2.63;;;18.80;44.90;;;;;;5077712;28;20093;-40
2021/01/22 10:19:55;;;;;;;3.05;2.63;;;18.80;44.90;;;;;;5084354;28;20048;-42
2021/01/22 10:22:22;;;;;;;4.05;3.03;;;18.80;44.90;;;;;;5079689;28;20063;-41
2021/01/22 10:24:49;;;;;;;2.88;2.65;;;18.80;44.90;;;;;;5079678;28;20047;-40
2021/01/22 10:27:16;;;;;;;3.20;2.90;;;18.80;44.90;;;;;;5083332;28;20060;-47
2021/01/22 10:29:42;;;;;;;3.53;2.88;;;18.80;44.90;;;;;;5085293;28;20447;-39
2021/01/22 10:32:09;;;;;;;3.92;3.10;;;18.80;44.90;;;;;;5082265;28;20045;-40
2021/01/22 10:34:36;;;;;;;3.20;2.72;;;18.80;44.90;;;;;;5086945;28;20044;-44
2021/01/22 10:37:02;;;;;;;2.90;2.60;;;18.80;44.90;;;;;;5085903;28;20496;-40
2021/01/22 10:39:29;;;;;;;3.83;3.17;;;18.80;44.90;;;;;;5091089;28;20048;-41
2021/01/22 10:41:56;;;;;;;3.08;2.78;;;18.80;44.90;;;;;;5084807;28;20050;-40
2021/01/22 10:44:22;;;;;;;3.42;3.05;;;18.80;44.90;;;;;;5088503;28;20048;-39
2021/01/22 10:46:49;;;;;;;3.72;2.60;;;18.80;44.90;;;;;;5087041;28;20492;-40
2021/01/22 10:49:16;;;;;;;3.05;2.70;;;18.80;44.90;;;;;;5083109;28;20066;-39
2021/01/22 10:51:42;;;;;;;3.65;3.05;;;18.80;44.90;;;;;;5082846;28;20048;-39
2021/01/22 10:54:10;;;;;;;3.15;2.80;;;18.80;44.90;;;;;;5082081;28;20051;-39
2021/01/22 10:56:38;;;;;;;3.53;2.90;;;18.80;44.90;;;;;;5080677;28;20098;-40
2021/01/22 10:59:04;;;;;;;4.05;3.28;;;18.80;44.90;;;;;;5085860;28;20432;-39
2021/01/22 11:01:31;;;;;;;2.97;2.55;;;18.80;44.90;;;;;;5082311;28;20040;-39
2021/01/22 11:03:58;;;;;;;3.60;3.10;;;18.80;44.90;;;;;;5076960;28;20052;-40
2021/01/22 11:06:25;;;;;;;2.95;2.60;;;18.80;44.90;;;;;;5078650;28;20051;-41
2021/01/22 11:08:51;;;;;;;3.10;2.80;;;18.80;44.90;;;;;;5077623;28;20055;-39
2021/01/22 11:11:18;;;;;;;3.10;2.80;;;18.80;44.90;;;;;;5079227;28;20052;-40
2021/01/22 11:13:45;;;;;;;3.47;3.13;;;18.80;44.90;;;;;;5084524;28;20122;-40
2021/01/22 11:16:11;;;;;;;3.42;2.75;;;18.80;44.90;;;;;;5079599;28;20051;-39
2021/01/22 11:18:38;;;;;;;3.13;2.70;;;18.80;44.90;;;;;;5086140;28;20048;-39
2021/01/22 11:21:05;;;;;;;3.78;3.08;;;18.80;44.90;;;;;;5088747;28;20048;-39
2021/01/22 11:23:32;;;;;;;2.97;2.60;;;18.80;44.90;;;;;;5085619;28;20055;-40
2021/01/22 11:25:59;;;;;;;3.88;2.60;;;18.80;44.90;;;;;;5083016;28;20056;-42
2021/01/22 11:28:25;;;;;;;3.53;2.90;;;18.80;44.90;;;;;;5079335;28;20052;-42
2021/01/22 11:30:52;;;;;;;3.60;2.90;;;18.80;44.90;;;;;;5076062;28;20503;-39
2021/01/22 11:33:19;;;;;;;4.25;3.08;;;18.80;44.90;;;;;;5080466;28;20492;-39
2021/01/22 11:35:46;;;;;;;4.35;2.97;;;18.80;44.90;;;;;;5079935;28;20035;-42
2021/01/22 11:38:13;;;;;;;3.40;3.10;;;18.80;44.90;;;;;;5082165;28;20044;-40
2021/01/22 11:40:39;;;;;;;3.60;3.10;;;18.80;44.90;;;;;;5081933;28;20101;-40
2021/01/22 11:43:06;;;;;;;2.92;2.63;;;18.80;44.90;;;;;;5083051;28;20052;-40
2021/01/22 11:45:32;;;;;;;3.78;3.13;;;18.80;44.90;;;;;;5082487;28;20051;-39
2021/01/22 11:47:59;;;;;;;3.17;2.83;;;18.90;45.00;;;;;;5082772;28;20051;-39
2021/01/22 11:50:27;;;;;;;3.30;2.80;;;18.80;44.90;;;;;;5081486;28;20050;-41
2021/01/22 11:52:54;;;;;;;4.15;3.13;;;18.80;44.90;;;;;;5084397;28;20068;-39
2021/01/22 11:55:40;;;;;;;3.45;2.90;;;18.80;44.90;;;;;;5078573;28;20066;-41
2021/01/22 11:58:07;;;;;;;3.15;2.80;;;18.80;44.90;;;;;;5075895;28;20495;-39
2021/01/22 12:00:34;;;;;;;3.40;2.85;;;18.80;44.90;;;;;;5075767;28;20475;-39
2021/01/22 12:03:01;;;;;;;4.78;3.00;;;18.80;44.90;;;;;;5087111;28;20093;-40
2021/01/22 12:05:28;;;;;;;3.65;3.10;;;18.80;44.90;;;;;;5084244;28;20055;-40
2021/01/22 12:07:56;;;;;;;3.88;2.97;;;18.80;44.90;;;;;;5077759;28;20098;-39
2021/01/22 12:10:22;;;;;;;3.58;3.00;;;18.90;45.00;;;;;;5079190;28;20044;-39
2021/01/22 12:12:49;;;;;;;4.35;2.90;;;18.80;44.90;;;;;;5082490;28;20442;-39
2021/01/22 12:15:15;;;;;;;3.25;2.80;;;18.80;44.90;;;;;;5077453;28;20040;-39
2021/01/22 12:17:43;;;;;;;3.65;2.90;;;18.90;45.00;;;;;;5080147;28;20045;-39
2021/01/22 12:20:10;;;;;;;3.55;3.20;;;18.80;44.90;;;;;;5088823;28;20048;-41
2021/01/22 12:22:38;;;;;;;3.10;2.80;;;18.80;44.90;;;;;;5082358;28;20051;-40
2021/01/22 12:25:05;;;;;;;3.22;2.80;;;18.80;44.90;;;;;;5085730;28;20048;-42
2021/01/22 12:27:32;;;;;;;3.25;2.65;;;18.80;44.90;;;;;;5083622;28;20059;-39
2021/01/22 12:29:59;;;;;;;3.28;2.88;;;18.80;44.90;;;;;;5080149;28;20041;-39
2021/01/22 12:32:26;;;;;;;4.18;2.88;;;18.80;44.90;;;;;;5086287;28;20048;-39
2021/01/22 12:34:53;;;;;;;2.88;2.58;;;18.80;44.90;;;;;;5085263;28;20044;-39
2021/01/22 12:37:20;;;;;;;2.80;2.47;;;18.80;44.90;;;;;;5084587;28;20479;-39
2021/01/22 12:39:46;;;;;;;3.50;3.20;;;18.80;44.90;;;;;;5083097;28;20097;-39
2021/01/22 12:42:13;;;;;;;3.22;2.90;;;18.80;44.90;;;;;;5078717;28;20496;-40
2021/01/22 12:44:40;;;;;;;3.55;2.90;;;18.90;45.00;;;;;;5076197;28;20099;-39
2021/01/22 12:47:08;;;;;;;3.25;2.90;;;18.90;45.60;;;;;;5079685;28;20067;-39
2021/01/22 12:49:37;;;;;;;3.40;2.95;;;18.90;45.00;;;;;;5074702;28;20072;-40
2021/01/22 12:52:04;;;;;;;3.60;2.83;;;18.90;45.00;;;;;;5078447;28;20070;-40
2021/01/22 12:54:31;;;;;;;3.63;3.03;;;18.90;45.00;;;;;;5081463;28;20059;-41
2021/01/22 12:56:58;;;;;;;3.28;2.75;;;18.90;45.00;;;;;;5082214;28;20049;-40